^^
Meteo Knjazevac Station Historical Data
Daily Summary for January 4, 2021 Units:  Both    English   Metric
Daily Weekly Monthly Yearly Custom
  High: Low: Average:
Temperature: 53.4 °F /  11.9 °C 45.7 °F /  7.6 °C 48.7 °F /  9.3 °C
Dew Point: 47.1 °F /  8.4 °C 42.9 °F /  6.1 °C 44.5 °F /  6.9 °C
Humidity: 91% 79% 86%
Wind Speed: 3mph /  4.8km/h - 1.1mph /  1.8km/h
Wind Gust: 6mph /  9.7km/h - -
Wind- - West
Pressure: 30.14 in /  1020.5 hPa 30.12 in /  1019.9 hPa -
Precipitation: 0.00 in /  0 mm    
Historical Graphs
 
 
Tabular Data for January 4, 2021
Time Temperature Dew Point Pressure Wind Wind Speed Wind Gust Humidity Rainfall Rate (Hourly) solar Conditions
00:00 53.4 °F /  11.9 °C 47.1 °F /  8.4 °C 30.14in /  1020.5hPa Calm     79% 0.00in /  0mm 0 W/m2
00:10 53.1 °F /  11.7 °C 46.7 °F /  8.2 °C 30.13in /  1020.2hPa Calm   1mph /  1.6km/h 79% 0.00in /  0mm 0 W/m2
00:20 52.7 °F /  11.5 °C 46.4 °F /  8 °C 30.14in /  1020.5hPa NW 1mph /  1.6km/h 2mph /  3.2km/h 79% 0.00in /  0mm 0 W/m2
00:30 52.3 °F /  11.3 °C 46.4 °F /  8 °C 30.14in /  1020.5hPa Calm   2mph /  3.2km/h 80% 0.00in /  0mm 0 W/m2
00:40 52 °F /  11.1 °C 46 °F /  7.8 °C 30.14in /  1020.5hPa West 1mph /  1.6km/h 2mph /  3.2km/h 80% 0.00in /  0mm 0 W/m2
00:50 51.6 °F /  10.9 °C 46 °F /  7.8 °C 30.14in /  1020.5hPa NW 1mph /  1.6km/h 3mph /  4.8km/h 81% 0.00in /  0mm 0 W/m2
01:00 51.3 °F /  10.7 °C 45.6 °F /  7.6 °C 30.14in /  1020.5hPa West 1mph /  1.6km/h 2mph /  3.2km/h 81% 0.00in /  0mm 0 W/m2
01:10 50.5 °F /  10.3 °C 44.9 °F /  7.2 °C 30.14in /  1020.5hPa WSW 1mph /  1.6km/h 2mph /  3.2km/h 81% 0.00in /  0mm 0 W/m2
01:20 50.2 °F /  10.1 °C 45.5 °F /  7.5 °C 30.14in /  1020.5hPa WNW 2mph /  3.2km/h 5mph /  8km/h 84% 0.00in /  0mm 0 W/m2
01:30 50.2 °F /  10.1 °C 45.5 °F /  7.5 °C 30.14in /  1020.5hPa WNW 1mph /  1.6km/h 4mph /  6.4km/h 84% 0.00in /  0mm 0 W/m2
01:40 50.2 °F /  10.1 °C 45.5 °F /  7.5 °C 30.13in /  1020.2hPa WNW 1mph /  1.6km/h 2mph /  3.2km/h 84% 0.00in /  0mm 0 W/m2
01:50 49.8 °F /  9.9 °C 45.2 °F /  7.3 °C 30.13in /  1020.2hPa Calm   2mph /  3.2km/h 84% 0.00in /  0mm 0 W/m2
02:00 49.4 °F /  9.7 °C 44.8 °F /  7.1 °C 30.14in /  1020.5hPa Calm   2mph /  3.2km/h 84% 0.00in /  0mm 0 W/m2
02:10 49.1 °F /  9.5 °C 44.5 °F /  6.9 °C 30.13in /  1020.2hPa Calm   2mph /  3.2km/h 84% 0.00in /  0mm 0 W/m2
02:20 48.7 °F /  9.3 °C 44.4 °F /  6.9 °C 30.13in /  1020.2hPa NW 1mph /  1.6km/h 2mph /  3.2km/h 85% 0.00in /  0mm 0 W/m2
02:30 48.7 °F /  9.3 °C 44.4 °F /  6.9 °C 30.13in /  1020.2hPa Calm   2mph /  3.2km/h 85% 0.00in /  0mm 0 W/m2
02:40 48.6 °F /  9.2 °C 44.3 °F /  6.8 °C 30.13in /  1020.2hPa Calm   2mph /  3.2km/h 85% 0.00in /  0mm 0 W/m2
02:50 48 °F /  8.9 °C 43.7 °F /  6.5 °C 30.14in /  1020.5hPa WSW 2mph /  3.2km/h 3mph /  4.8km/h 85% 0.00in /  0mm 0 W/m2
03:00 47.7 °F /  8.7 °C 43.7 °F /  6.5 °C 30.13in /  1020.2hPa WSW 2mph /  3.2km/h 6mph /  9.7km/h 86% 0.00in /  0mm 0 W/m2
03:10 47.5 °F /  8.6 °C 44.1 °F /  6.7 °C 30.13in /  1020.2hPa West 3mph /  4.8km/h 5mph /  8km/h 88% 0.00in /  0mm 0 W/m2
03:20 47.5 °F /  8.6 °C 44.4 °F /  6.9 °C 30.13in /  1020.2hPa West 2mph /  3.2km/h 5mph /  8km/h 89% 0.00in /  0mm 0 W/m2
03:30 47.5 °F /  8.6 °C 44.4 °F /  6.9 °C 30.13in /  1020.2hPa WSW 2mph /  3.2km/h 3mph /  4.8km/h 89% 0.00in /  0mm 0 W/m2
03:40 47.1 °F /  8.4 °C 43.7 °F /  6.5 °C 30.13in /  1020.2hPa West 2mph /  3.2km/h 3mph /  4.8km/h 88% 0.00in /  0mm 0 W/m2
03:50 47.1 °F /  8.4 °C 44 °F /  6.7 °C 30.13in /  1020.2hPa NW 1mph /  1.6km/h 5mph /  8km/h 89% 0.00in /  0mm 0 W/m2
04:00 47.1 °F /  8.4 °C 44 °F /  6.7 °C 30.13in /  1020.2hPa WNW 1mph /  1.6km/h 2mph /  3.2km/h 89% 0.00in /  0mm 0 W/m2
04:10 47.1 °F /  8.4 °C 44 °F /  6.7 °C 30.12in /  1019.9hPa Calm   2mph /  3.2km/h 89% 0.00in /  0mm 0 W/m2
04:20 46.8 °F /  8.2 °C 43.4 °F /  6.3 °C 30.12in /  1019.9hPa Calm   2mph /  3.2km/h 88% 0.00in /  0mm 0 W/m2
04:30 46.6 °F /  8.1 °C 43.5 °F /  6.4 °C 30.12in /  1019.9hPa Calm   2mph /  3.2km/h 89% 0.00in /  0mm 0 W/m2
04:40 46.4 °F /  8 °C 43.3 °F /  6.3 °C 30.12in /  1019.9hPa WNW 1mph /  1.6km/h 2mph /  3.2km/h 89% 0.00in /  0mm 0 W/m2
04:50 46.2 °F /  7.9 °C 43.1 °F /  6.2 °C 30.12in /  1019.9hPa WNW 2mph /  3.2km/h 5mph /  8km/h 89% 0.00in /  0mm 0 W/m2
05:00 46.2 °F /  7.9 °C 43.4 °F /  6.3 °C 30.12in /  1019.9hPa West 3mph /  4.8km/h 5mph /  8km/h 90% 0.00in /  0mm 0 W/m2
05:10 46 °F /  7.8 °C 43.6 °F /  6.4 °C 30.12in /  1019.9hPa West 2mph /  3.2km/h 4mph /  6.4km/h 91% 0.00in /  0mm 0 W/m2
05:20 46 °F /  7.8 °C 43.3 °F /  6.3 °C 30.12in /  1019.9hPa West 2mph /  3.2km/h 5mph /  8km/h 90% 0.00in /  0mm 0 W/m2
05:30 45.9 °F /  7.7 °C 43.1 °F /  6.2 °C 30.12in /  1019.9hPa West 1mph /  1.6km/h 4mph /  6.4km/h 90% 0.00in /  0mm 0 W/m2
05:40 45.7 °F /  7.6 °C 42.9 °F /  6.1 °C 30.12in /  1019.9hPa WNW 1mph /  1.6km/h 2mph /  3.2km/h 90% 0.00in /  0mm 0 W/m2
Knjazevac, Serbia
Compliments of Weather Underground - 2 mb